首页
METAR-TAF:

METAR-TAF

机场 :

亨茨维尔, 阿拉巴马州, 美国

纬度: 34-51-41N, 经度: 086-33-26W, 海拔: 230米

当前天气观测

该预报发布于28分钟前的22:55 UTC
风速4节,风向西
温度 18°C
湿度 39%
气压 1017 hPa
能見度: 16.1公里
散云层高于7500英尺

METAR: KMDQ 132255Z AUTO 26004KT 10SM SCT075 18/04 A3004 RMK A02 T01820040

时间: 18:23 (23:23 UTC)


TAF: 丢失

超过4000个机场的气象观测和天气预报(METAR&TAF报告)。

可查询的气象台以黄色和红色小点在地图上表示。

将鼠标移到小点上方,可查看气象台名称。

然后点击查看天气观测和预报。

如需切换地图:点击带黑十字的绿色按钮放大地图;点击带横线的绿色按钮缩小地图;或者点击绿色箭头查看邻近地区的地图。


METAR-TAF: